Time;durP1;ratioP1;P1;durP2;ratioP2;P2;SDS_P1;SDS_P2;PMS_P1;PMS_P2;Temp;Humidity;BMP_temperature;BMP_pressure;BME280_temperature;BME280_humidity;BME280_pressure;Samples;Min_cycle;Max_cycle;Signal;HPM_P1;HPM_P2
2022/12/15 00:40:03;;;;;;;6.85;2.63;;;-1.70;99.90;;;;;;5071721;28;20488;-60
2022/12/15 00:42:34;;;;;;;5.82;2.22;;;-1.70;99.90;;;;;;5070636;28;20370;-60
2022/12/15 00:45:00;;;;;;;7.97;2.25;;;-1.60;99.90;;;;;;5071123;28;20407;-60
2022/12/15 00:47:26;;;;;;;5.97;2.70;;;-1.60;99.90;;;;;;5070701;28;20036;-60
2022/12/15 01:20:13;;;;;;;7.55;1.50;;;-1.60;99.90;;;;;;5053292;28;20051;-60
2022/12/15 01:22:39;;;;;;;4.80;1.52;;;-1.70;99.90;;;;;;5054326;28;20044;-60
2022/12/15 01:25:06;;;;;;;4.72;1.40;;;-1.60;99.90;;;;;;5070182;28;20055;-61
2022/12/15 01:27:32;;;;;;;3.90;1.70;;;-1.60;99.90;;;;;;5053791;28;20039;-60
2022/12/15 01:29:58;;;;;;;4.93;1.63;;;-1.60;99.90;;;;;;5070119;28;20072;-60
2022/12/15 01:32:24;;;;;;;6.10;1.80;;;-1.60;99.90;;;;;;5070640;28;20453;-60
2022/12/15 01:34:50;;;;;;;7.63;1.92;;;-1.60;99.90;;;;;;5070582;28;20412;-61
2022/12/15 01:37:16;;;;;;;3.95;1.10;;;-1.50;99.90;;;;;;5071570;28;20401;-60
2022/12/15 01:42:26;;;;;;;6.45;1.58;;;-1.60;99.90;;;;;;5070268;28;20055;-60
2022/12/15 01:44:52;;;;;;;6.47;1.35;;;-1.60;99.90;;;;;;5069026;28;20377;-60
2022/12/15 01:47:23;;;;;;;7.10;1.98;;;-1.60;99.90;;;;;;5068037;28;20064;-60
2022/12/15 01:49:49;;;;;;;4.05;1.40;;;-1.60;99.90;;;;;;5070047;28;20102;-62
2022/12/15 01:52:15;;;;;;;6.78;1.80;;;-1.60;99.90;;;;;;5069494;28;20114;-60
2022/12/15 01:54:47;;;;;;;5.13;1.73;;;-1.50;99.90;;;;;;5070390;28;20040;-60
2022/12/15 01:57:20;;;;;;;4.28;1.20;;;-1.50;99.90;;;;;;5071569;28;20346;-61
2022/12/15 01:59:52;;;;;;;8.25;1.75;;;-1.40;99.90;;;;;;5070321;28;20044;-60
2022/12/15 02:02:21;;;;;;;5.50;1.40;;;-1.40;99.90;;;;;;5071500;28;20041;-60
2022/12/15 02:04:49;;;;;;;5.72;1.85;;;-1.30;99.90;;;;;;5036825;28;20041;-60
2022/12/15 02:07:15;;;;;;;16.77;2.25;;;-1.10;99.90;;;;;;5053018;28;20037;-60
2022/12/15 02:09:44;;;;;;;10.45;2.15;;;-1.10;99.90;;;;;;5053777;28;20416;-60
2022/12/15 02:12:24;;;;;;;4.63;0.95;;;-1.00;99.90;;;;;;5071370;28;20044;-60
2022/12/15 02:15:18;;;;;;;4.35;1.42;;;-0.90;99.90;;;;;;5037093;28;20123;-60
2022/12/15 02:18:08;;;;;;;4.05;1.17;;;-0.80;99.90;;;;;;5071386;28;20454;-60
2022/12/15 02:21:08;;;;;;;5.88;1.10;;;-0.70;99.90;;;;;;5069601;28;20060;-60
2022/12/15 02:24:12;;;;;;;5.07;1.10;;;-0.60;99.90;;;;;;5032056;28;20053;-60
2022/12/15 02:26:53;;;;;;;3.88;0.90;;;-0.60;99.90;;;;;;5070742;28;20390;-60
2022/12/15 02:29:53;;;;;;;4.47;1.60;;;-0.60;99.90;;;;;;5069719;28;20044;-60
2022/12/15 02:32:29;;;;;;;3.80;0.98;;;-0.50;99.90;;;;;;5069858;28;20182;-60
2022/12/15 02:35:02;;;;;;;9.23;1.40;;;-0.60;99.90;;;;;;5070355;28;20040;-60
2022/12/15 02:37:33;;;;;;;5.07;0.98;;;-0.60;99.90;;;;;;5054592;28;20481;-60
2022/12/15 02:39:59;;;;;;;5.05;1.23;;;-0.60;99.90;;;;;;5053007;28;20044;-60
2022/12/15 02:42:27;;;;;;;3.67;0.77;;;-0.70;99.90;;;;;;5069623;28;20411;-60
2022/12/15 02:44:55;;;;;;;6.30;0.88;;;-0.70;99.90;;;;;;5071115;28;20041;-60
2022/12/15 02:47:39;;;;;;;4.28;0.98;;;-0.70;99.90;;;;;;5052870;28;20051;-60
2022/12/15 02:50:07;;;;;;;5.35;0.88;;;-0.80;99.90;;;;;;5069805;28;20041;-60
2022/12/15 02:52:48;;;;;;;3.90;1.48;;;-0.90;99.90;;;;;;5071138;28;20041;-60
2022/12/15 02:55:38;;;;;;;3.53;0.90;;;-0.90;99.90;;;;;;5069062;28;20526;-60
2022/12/15 02:58:14;;;;;;;7.53;1.23;;;-0.80;99.90;;;;;;5069212;28;20489;-60
2022/12/15 03:00:44;;;;;;;5.97;1.48;;;-0.60;99.90;;;;;;5072516;28;20378;-60
2022/12/15 03:03:18;;;;;;;3.70;1.08;;;-0.50;99.90;;;;;;5073549;28;20048;-60
2022/12/15 03:05:53;;;;;;;4.97;1.30;;;-0.40;99.90;;;;;;5073010;28;20040;-60
2022/12/15 03:08:20;;;;;;;10.23;2.70;;;-0.40;99.90;;;;;;5056578;28;20052;-60
2022/12/15 03:10:48;;;;;;;20.77;6.55;;;-0.30;99.90;;;;;;5063956;28;20032;-60
2022/12/15 03:13:13;;;;;;;10.65;2.42;;;-0.40;99.90;;;;;;5056311;28;20040;-60
2022/12/15 03:15:39;;;;;;;4.22;1.23;;;-0.40;99.90;;;;;;5061036;28;20404;-60
2022/12/15 03:18:05;;;;;;;4.50;1.27;;;-0.50;99.90;;;;;;5073116;28;20481;-61
2022/12/15 03:20:30;;;;;;;3.88;1.33;;;-0.60;99.90;;;;;;5074225;28;20393;-60
2022/12/15 03:22:56;;;;;;;3.95;1.48;;;-0.70;99.90;;;;;;5072656;28;20040;-61
2022/12/15 03:25:22;;;;;;;6.10;1.30;;;-0.70;99.90;;;;;;5071720;28;20053;-60
2022/12/15 03:27:47;;;;;;;6.45;1.02;;;-0.80;99.90;;;;;;5073897;28;20043;-60
2022/12/15 03:30:14;;;;;;;5.82;1.25;;;-0.80;99.90;;;;;;5068594;28;20086;-60
2022/12/15 03:32:39;;;;;;;5.63;1.63;;;-0.80;99.90;;;;;;5056168;28;20474;-60
2022/12/15 03:35:06;;;;;;;4.43;1.20;;;-0.80;99.90;;;;;;5073605;28;20042;-60
2022/12/15 03:37:31;;;;;;;4.20;1.15;;;-0.90;99.90;;;;;;5073046;28;20484;-60
2022/12/15 03:39:57;;;;;;;6.82;1.40;;;-0.90;99.90;;;;;;5072619;28;20090;-60
2022/12/15 03:45:07;;;;;;;3.55;1.05;;;-0.90;99.90;;;;;;5058926;28;20050;-60
2022/12/15 03:47:33;;;;;;;5.78;1.83;;;-1.00;99.90;;;;;;5074036;28;20036;-60
2022/12/15 03:49:59;;;;;;;3.97;1.42;;;-1.00;99.90;;;;;;5072794;28;20124;-60
2022/12/15 03:52:24;;;;;;;4.88;1.30;;;-1.00;99.90;;;;;;5072715;28;20030;-60
2022/12/15 03:54:50;;;;;;;5.30;1.67;;;-1.00;99.90;;;;;;5073301;28;20047;-60
2022/12/15 03:57:16;;;;;;;7.97;1.65;;;-1.10;99.90;;;;;;5073291;28;20124;-60
2022/12/15 03:59:41;;;;;;;5.50;1.40;;;-1.10;99.90;;;;;;5055953;28;20044;-60
2022/12/15 04:02:10;;;;;;;7.50;1.55;;;-1.10;99.90;;;;;;5073515;28;20041;-60
2022/12/15 04:04:36;;;;;;;6.70;1.20;;;-1.10;99.90;;;;;;5055455;28;20048;-60
2022/12/15 04:07:02;;;;;;;4.78;1.77;;;-1.10;99.90;;;;;;5054614;28;20040;-60
2022/12/15 04:09:28;;;;;;;8.27;1.55;;;-1.10;99.90;;;;;;5073016;28;20544;-60
2022/12/15 04:11:53;;;;;;;4.72;1.60;;;-1.10;99.90;;;;;;5072663;28;20041;-60
2022/12/15 04:14:19;;;;;;;7.80;1.60;;;-1.10;99.90;;;;;;5071975;28;20075;-60
2022/12/15 04:16:45;;;;;;;4.95;1.48;;;-1.10;99.90;;;;;;5071987;28;20044;-60
2022/12/15 04:22:01;;;;;;;8.50;2.30;;;-1.10;99.90;;;;;;5054942;28;20102;-60
2022/12/15 05:32:53;;;;;;;7.05;2.15;;;-0.50;99.90;;;;;;5071458;28;20063;-60
2022/12/15 05:35:18;;;;;;;8.43;1.80;;;-0.50;99.90;;;;;;5071335;28;20037;-60
2022/12/15 05:37:44;;;;;;;11.68;1.73;;;-0.40;99.90;;;;;;5036351;28;20041;-60
2022/12/15 05:40:10;;;;;;;6.75;2.05;;;-0.40;99.90;;;;;;5070371;28;20051;-60
2022/12/15 05:42:36;;;;;;;11.75;2.05;;;-0.40;99.90;;;;;;5054016;28;20055;-61
2022/12/15 05:45:01;;;;;;;10.00;2.00;;;-0.40;99.90;;;;;;5053045;28;20125;-60
2022/12/15 05:47:27;;;;;;;7.28;1.60;;;-0.40;99.90;;;;;;5071879;28;20072;-60
2022/12/15 05:49:53;;;;;;;8.65;1.85;;;-0.40;99.90;;;;;;5071328;28;20078;-60
2022/12/15 05:52:18;;;;;;;5.10;1.48;;;-0.40;99.90;;;;;;5036051;28;20032;-60
2022/12/15 05:54:44;;;;;;;9.70;1.75;;;-0.40;99.90;;;;;;5071772;28;20117;-60
2022/12/15 05:57:09;;;;;;;4.82;1.83;;;-0.40;99.90;;;;;;5070409;28;20067;-60
2022/12/15 05:59:35;;;;;;;7.50;2.22;;;-0.50;99.90;;;;;;5071169;28;20040;-60
2022/12/15 06:02:01;;;;;;;9.75;2.47;;;-0.50;99.90;;;;;;5071526;28;20523;-60
2022/12/15 06:04:26;;;;;;;5.32;1.85;;;-0.50;99.90;;;;;;5070311;28;20398;-60
2022/12/15 06:06:52;;;;;;;8.25;2.35;;;-0.50;99.90;;;;;;5069295;28;20048;-60
2022/12/15 06:09:18;;;;;;;8.93;1.75;;;-0.50;99.90;;;;;;5070244;28;20033;-60
2022/12/15 06:11:43;;;;;;;6.40;2.08;;;-0.50;99.90;;;;;;5069988;28;20036;-60
2022/12/15 06:14:09;;;;;;;6.45;1.50;;;-0.50;99.90;;;;;;5052634;28;20036;-60
2022/12/15 06:16:35;;;;;;;5.53;1.80;;;-0.50;99.90;;;;;;5070432;28;20052;-60
2022/12/15 06:19:02;;;;;;;5.07;1.38;;;-0.50;99.90;;;;;;5069034;28;20044;-60
2022/12/15 06:21:31;;;;;;;6.18;1.60;;;-0.50;99.90;;;;;;5070048;28;20040;-60
2022/12/15 06:23:57;;;;;;;7.75;1.83;;;-0.50;99.90;;;;;;5069824;28;20053;-60
2022/12/15 06:26:25;;;;;;;7.63;1.83;;;-0.50;99.90;;;;;;5069350;28;20052;-60
2022/12/15 06:28:53;;;;;;;6.85;1.75;;;-0.40;99.90;;;;;;5070374;28;20032;-60
2022/12/15 06:31:24;;;;;;;6.82;2.22;;;-0.40;99.90;;;;;;5069123;28;20135;-60
2022/12/15 06:33:51;;;;;;;6.80;2.00;;;-0.40;99.90;;;;;;5054073;28;20040;-60
2022/12/15 06:36:17;;;;;;;9.32;2.65;;;-0.40;99.90;;;;;;5073809;28;20485;-60
2022/12/15 06:38:44;;;;;;;9.52;2.50;;;-0.30;99.90;;;;;;5072730;28;20048;-60
2022/12/15 06:41:12;;;;;;;6.57;1.88;;;-0.30;99.90;;;;;;5063169;28;20443;-60
2022/12/15 06:43:38;;;;;;;8.90;2.00;;;-0.30;99.90;;;;;;5057395;28;20040;-60
2022/12/15 06:46:04;;;;;;;7.50;2.30;;;-0.30;99.90;;;;;;5073957;28;20454;-60
2022/12/15 06:48:30;;;;;;;8.38;2.78;;;-0.30;99.90;;;;;;5062318;28;20047;-60
2022/12/15 06:51:00;;;;;;;9.52;3.22;;;-0.30;99.90;;;;;;5074922;28;20032;-60
2022/12/15 06:53:26;;;;;;;6.78;2.33;;;-0.30;99.90;;;;;;5064462;28;20119;-60
2022/12/15 06:55:52;;;;;;;9.27;2.25;;;-0.30;99.90;;;;;;5034386;28;20147;-60
2022/12/15 06:58:17;;;;;;;5.32;1.80;;;-0.30;99.90;;;;;;5072394;28;20037;-60
2022/12/15 07:00:45;;;;;;;7.38;2.00;;;-0.30;99.90;;;;;;5053913;28;20044;-60
2022/12/15 07:03:16;;;;;;;6.38;1.98;;;-0.30;99.90;;;;;;5070361;28;20059;-60
2022/12/15 07:05:43;;;;;;;6.80;1.98;;;-0.20;99.90;;;;;;5053330;28;20059;-60
2022/12/15 07:08:10;;;;;;;7.03;1.90;;;-0.10;99.90;;;;;;5053514;28;20090;-60
2022/12/15 07:10:41;;;;;;;11.73;2.15;;;0.00;99.90;;;;;;5066170;28;20043;-60
2022/12/15 07:13:13;;;;;;;7.00;1.95;;;0.10;99.90;;;;;;5069889;28;20111;-60
2022/12/15 07:15:40;;;;;;;6.85;1.90;;;0.10;99.90;;;;;;5069726;28;20515;-60
2022/12/15 07:18:09;;;;;;;5.07;1.63;;;0.20;99.90;;;;;;5067057;28;20044;-60
2022/12/15 07:20:34;;;;;;;6.47;2.28;;;0.10;99.90;;;;;;5071188;28;20389;-60
2022/12/15 07:23:06;;;;;;;6.90;2.42;;;0.20;99.90;;;;;;5070248;28;20048;-60
2022/12/15 07:25:33;;;;;;;8.52;3.05;;;0.20;99.90;;;;;;5062063;28;20552;-60
2022/12/15 07:27:59;;;;;;;8.02;2.72;;;0.10;99.90;;;;;;5064466;28;20045;-60
2022/12/15 07:30:25;;;;;;;8.18;2.38;;;0.20;99.90;;;;;;5050996;28;20082;-60
2022/12/15 07:32:50;;;;;;;8.27;2.63;;;0.10;99.90;;;;;;5070669;28;20450;-61
2022/12/15 07:35:16;;;;;;;8.23;2.03;;;0.10;99.90;;;;;;5053429;28;20409;-60
2022/12/15 07:37:42;;;;;;;9.60;2.30;;;0.10;99.90;;;;;;5071049;28;20045;-60
2022/12/15 07:40:08;;;;;;;5.85;2.10;;;0.10;99.90;;;;;;5037652;28;20045;-60
2022/12/15 07:42:35;;;;;;;7.07;2.05;;;0.10;99.90;;;;;;5053854;28;20056;-60
2022/12/15 07:45:01;;;;;;;6.07;1.70;;;0.00;99.90;;;;;;5039983;28;20062;-60
2022/12/15 07:47:27;;;;;;;7.45;2.28;;;0.00;99.90;;;;;;5072913;28;20521;-60
2022/12/15 07:49:53;;;;;;;14.23;3.35;;;0.00;99.90;;;;;;5062601;28;20036;-60
2022/12/15 07:52:19;;;;;;;6.63;2.38;;;0.00;99.90;;;;;;5055472;28;20032;-60
2022/12/15 07:54:45;;;;;;;6.82;2.10;;;0.00;99.90;;;;;;5073585;28;20402;-60
2022/12/15 07:57:11;;;;;;;9.30;2.35;;;0.00;99.90;;;;;;5055985;28;20044;-60
2022/12/15 07:59:36;;;;;;;7.00;2.53;;;0.10;99.90;;;;;;5038835;28;20037;-60
2022/12/15 08:02:03;;;;;;;7.07;2.17;;;0.20;99.90;;;;;;5055560;28;20082;-60
2022/12/15 08:04:29;;;;;;;5.85;1.80;;;0.20;99.90;;;;;;5055146;28;20524;-60
2022/12/15 08:06:56;;;;;;;7.20;2.38;;;0.20;99.90;;;;;;5055892;28;20084;-60
2022/12/15 08:09:22;;;;;;;9.35;2.67;;;0.20;99.90;;;;;;5073298;28;20028;-60
2022/12/15 08:11:49;;;;;;;9.90;2.13;;;0.30;99.90;;;;;;5054710;28;20101;-60
2022/12/15 08:14:15;;;;;;;7.93;2.00;;;0.30;99.90;;;;;;5073321;28;20040;-60
2022/12/15 08:16:41;;;;;;;7.63;2.40;;;0.40;99.90;;;;;;5073686;28;20040;-60
2022/12/15 08:19:10;;;;;;;8.98;3.28;;;0.40;99.90;;;;;;5054799;28;20037;-60
2022/12/15 08:21:39;;;;;;;7.68;2.58;;;0.50;99.90;;;;;;5073547;28;20036;-60
2022/12/15 08:24:06;;;;;;;12.25;2.47;;;0.50;99.90;;;;;;5072564;28;20052;-60
2022/12/15 08:26:33;;;;;;;6.53;1.90;;;0.60;99.90;;;;;;5072565;28;20040;-60
2022/12/15 08:29:04;;;;;;;5.93;1.75;;;0.60;99.90;;;;;;5055131;28;20485;-60
2022/12/15 08:31:31;;;;;;;7.95;1.77;;;0.70;99.90;;;;;;5073031;28;20512;-60
2022/12/15 08:33:57;;;;;;;7.63;2.30;;;0.70;99.90;;;;;;5054291;28;20507;-60
2022/12/15 08:36:23;;;;;;;8.65;2.30;;;0.90;99.90;;;;;;5055095;28;20151;-60
2022/12/15 08:38:49;;;;;;;5.97;2.08;;;0.90;99.90;;;;;;5072854;28;20041;-60
2022/12/15 08:41:19;;;;;;;5.85;2.03;;;0.90;99.90;;;;;;5072184;28;20115;-60
2022/12/15 08:43:46;;;;;;;6.00;2.20;;;0.90;99.90;;;;;;5054871;28;20040;-60
2022/12/15 08:46:12;;;;;;;10.43;1.88;;;0.80;99.90;;;;;;5072534;28;20064;-60
2022/12/15 08:48:38;;;;;;;7.47;2.10;;;0.80;99.90;;;;;;5072188;28;20089;-60
2022/12/15 08:51:05;;;;;;;8.13;2.45;;;0.80;99.90;;;;;;5054362;28;20715;-60
2022/12/15 08:53:31;;;;;;;9.18;2.30;;;0.80;99.90;;;;;;5054923;28;20477;-60
2022/12/15 08:56:03;;;;;;;9.52;2.47;;;0.70;99.90;;;;;;5054074;28;20051;-60
2022/12/15 08:58:28;;;;;;;7.95;2.40;;;0.70;99.90;;;;;;5055246;28;20060;-60
2022/12/15 09:00:59;;;;;;;7.60;3.40;;;0.70;99.90;;;;;;5053986;28;20489;-60
2022/12/15 09:03:26;;;;;;;6.40;2.45;;;0.60;99.90;;;;;;5072363;28;20090;-60
2022/12/15 09:05:51;;;;;;;6.05;2.17;;;0.60;99.90;;;;;;5054489;28;20040;-60
2022/12/15 09:08:17;;;;;;;9.30;2.83;;;0.60;99.90;;;;;;5053756;28;20048;-60
2022/12/15 09:10:42;;;;;;;10.15;2.53;;;0.70;99.90;;;;;;5072608;28;20129;-60
2022/12/15 09:13:08;;;;;;;9.32;3.60;;;0.60;99.90;;;;;;5072317;28;20039;-60
2022/12/15 09:15:34;;;;;;;7.72;2.55;;;0.70;99.90;;;;;;5037188;28;20047;-60
2022/12/15 09:17:59;;;;;;;5.72;2.28;;;0.80;99.90;;;;;;5054309;28;20056;-60
2022/12/15 09:20:25;;;;;;;15.45;2.63;;;0.90;99.90;;;;;;5054666;28;20040;-60
2022/12/15 09:22:51;;;;;;;7.88;2.45;;;0.90;99.90;;;;;;5053710;28;20119;-60
2022/12/15 09:25:17;;;;;;;6.65;2.33;;;1.00;99.90;;;;;;5038369;28;20100;-60
2022/12/15 09:27:43;;;;;;;9.93;2.63;;;1.10;99.90;;;;;;5017641;28;20046;-60
2022/12/15 09:30:09;;;;;;;8.38;3.03;;;1.20;99.90;;;;;;5019588;28;20494;-60
2022/12/15 09:32:34;;;;;;;8.68;2.33;;;1.30;99.90;;;;;;5023192;28;20040;-60
2022/12/15 09:35:00;;;;;;;6.03;2.42;;;1.40;99.90;;;;;;5011069;28;20101;-60
2022/12/15 09:37:26;;;;;;;6.53;3.53;;;1.40;99.90;;;;;;5012760;28;20064;-61
2022/12/15 09:39:51;;;;;;;9.23;2.10;;;1.40;99.90;;;;;;5020234;28;20045;-61
2022/12/15 09:42:29;;;;;;;8.95;2.60;;;1.40;99.90;;;;;;5013873;28;20099;-60
2022/12/15 09:45:04;;;;;;;7.88;2.25;;;1.30;99.90;;;;;;5028593;28;20463;-60
2022/12/15 09:47:45;;;;;;;5.88;2.10;;;1.30;99.90;;;;;;5027088;28;20556;-60
2022/12/15 09:50:14;;;;;;;6.85;2.63;;;1.30;99.90;;;;;;5027401;28;20055;-60
2022/12/15 09:52:48;;;;;;;7.40;2.80;;;1.30;99.90;;;;;;5022506;28;20041;-60
2022/12/15 09:55:23;;;;;;;7.07;2.50;;;1.40;99.90;;;;;;5026971;28;20505;-60
2022/12/15 09:57:51;;;;;;;8.68;2.38;;;1.40;99.90;;;;;;5027174;28;20216;-60
2022/12/15 10:00:37;;;;;;;7.25;2.85;;;1.50;99.90;;;;;;5027787;28;20491;-60
2022/12/15 10:03:03;;;;;;;;;;;1.50;99.90;;;;;;5028193;28;20494;-60
2022/12/15 10:05:50;;;;;;;7.43;2.30;;;1.60;99.90;;;;;;5028255;28;19932;-60
2022/12/15 10:08:15;;;;;;;9.15;2.38;;;1.60;99.90;;;;;;5027989;28;20137;-60
2022/12/15 10:10:52;;;;;;;11.65;2.85;;;1.70;99.90;;;;;;5028217;28;20116;-60
2022/12/15 10:13:56;;;;;;;10.63;2.70;;;1.80;99.90;;;;;;5004023;28;20120;-60
2022/12/15 10:16:31;;;;;;;7.65;2.58;;;1.80;99.90;;;;;;5021600;28;20065;-60
2022/12/15 10:19:12;;;;;;;6.35;2.75;;;1.90;99.90;;;;;;5032556;28;20138;-60
2022/12/15 10:21:38;;;;;;;6.65;2.22;;;2.00;99.90;;;;;;5027463;28;20104;-60
2022/12/15 10:24:13;;;;;;;7.95;2.30;;;2.00;99.90;;;;;;5023406;28;20799;-60
2022/12/15 10:26:41;;;;;;;10.43;2.67;;;2.10;99.90;;;;;;5048271;28;20045;-60
2022/12/15 10:29:29;;;;;;;9.23;2.58;;;2.20;99.90;;;;;;5028801;28;20114;-60
2022/12/15 10:32:04;;;;;;;11.85;2.70;;;2.20;99.90;;;;;;5013911;28;20401;-60
2022/12/15 10:34:34;;;;;;;9.45;2.85;;;2.30;99.90;;;;;;5024366;28;20045;-60
2022/12/15 10:37:00;;;;;;;12.68;3.78;;;2.20;99.90;;;;;;5045783;28;20029;-60
2022/12/15 10:39:43;;;;;;;15.27;4.90;;;2.20;99.90;;;;;;5025498;28;20474;-60
2022/12/15 10:42:26;;;;;;;11.32;3.65;;;2.30;99.90;;;;;;5026812;28;20038;-60
2022/12/15 10:44:54;;;;;;;6.50;2.42;;;2.20;99.90;;;;;;5036282;28;20052;-60
2022/12/15 10:47:22;;;;;;;8.32;3.05;;;2.30;99.90;;;;;;5034691;28;20084;-60
2022/12/15 10:49:49;;;;;;;9.13;3.20;;;2.30;99.90;;;;;;5050881;28;20045;-60
2022/12/15 10:52:36;;;;;;;10.63;3.03;;;2.40;99.90;;;;;;5045525;28;20110;-60
2022/12/15 10:55:37;;;;;;;7.10;2.83;;;2.40;99.90;;;;;;5010596;28;20525;-60
2022/12/15 10:58:14;;;;;;;10.95;3.15;;;2.50;99.90;;;;;;5011256;28;20491;-60
2022/12/15 11:00:40;;;;;;;14.40;3.10;;;2.50;99.90;;;;;;5012165;28;20376;-60
2022/12/15 11:03:21;;;;;;;9.35;4.03;;;2.60;99.90;;;;;;5016310;28;20060;-60
2022/12/15 11:05:54;;;;;;;10.73;2.78;;;2.60;99.90;;;;;;5015046;28;20042;-60
2022/12/15 11:08:22;;;;;;;8.88;2.88;;;2.70;99.90;;;;;;5020138;28;20038;-60
2022/12/15 11:13:41;;;;;;;8.50;2.63;;;2.80;99.90;;;;;;5014058;28;20041;-60
2022/12/15 11:16:16;;;;;;;6.88;1.85;;;2.80;99.90;;;;;;5028013;28;20041;-60
2022/12/15 11:18:48;;;;;;;;;;;2.90;99.90;;;;;;5013188;28;20503;-59
2022/12/15 11:21:20;;;;;;;9.70;2.28;;;2.90;99.90;;;;;;5014680;28;19925;-59
2022/12/15 11:24:02;;;;;;;5.88;2.05;;;3.00;99.90;;;;;;5021006;28;20437;-60
2022/12/15 11:26:47;;;;;;;8.38;2.60;;;3.10;99.90;;;;;;5045385;28;20103;-60
2022/12/15 11:29:22;;;;;;;8.10;2.92;;;3.20;99.90;;;;;;5029864;28;20040;-60
2022/12/15 11:31:53;;;;;;;13.05;2.45;;;3.20;99.90;;;;;;5031559;28;20367;-60
2022/12/15 11:34:25;;;;;;;6.80;2.33;;;3.30;99.90;;;;;;5032023;28;20123;-60
2022/12/15 11:37:00;;;;;;;8.85;2.08;;;3.40;99.90;;;;;;5028333;28;20041;-60
2022/12/15 11:39:48;;;;;;;6.55;2.78;;;3.50;99.90;;;;;;5011744;28;20096;-60
2022/12/15 11:42:50;;;;;;;8.07;2.15;;;3.50;99.90;;;;;;5029723;28;20052;-60
2022/12/15 11:45:37;;;;;;;6.50;2.40;;;3.50;99.90;;;;;;5029947;28;20045;-60
2022/12/15 11:48:19;;;;;;;10.20;2.05;;;3.60;99.90;;;;;;5031277;28;20137;-60
2022/12/15 11:50:52;;;;;;;5.80;2.10;;;3.60;99.90;;;;;;5030277;28;20116;-60
2022/12/15 11:53:33;;;;;;;7.60;2.00;;;3.70;99.90;;;;;;5029638;28;20041;-60
2022/12/15 11:56:06;;;;;;;6.72;2.22;;;3.70;99.90;;;;;;5029734;28;20045;-60
2022/12/15 11:58:49;;;;;;;7.47;2.33;;;3.80;99.90;;;;;;5012933;28;20482;-60
2022/12/15 12:01:48;;;;;;;5.45;1.83;;;3.90;99.90;;;;;;5031173;28;20410;-60
2022/12/15 12:04:17;;;;;;;7.20;2.25;;;3.90;99.90;;;;;;5029237;28;20558;-60
2022/12/15 12:06:45;;;;;;;7.60;2.10;;;3.90;99.90;;;;;;5012758;28;20495;-60
2022/12/15 12:09:37;;;;;;;7.55;2.17;;;3.90;99.90;;;;;;5013036;28;20044;-60
2022/12/15 12:12:19;;;;;;;6.78;1.70;;;3.90;99.90;;;;;;5027121;28;20049;-60
2022/12/15 12:14:51;;;;;;;8.27;2.22;;;3.90;99.90;;;;;;5030005;28;20092;-61
2022/12/15 12:17:37;;;;;;;5.28;1.95;;;3.90;99.90;;;;;;5029644;28;20402;-60
2022/12/15 12:20:15;;;;;;;12.00;3.03;;;3.90;99.90;;;;;;5012843;28;20045;-60
2022/12/15 12:23:09;;;;;;;10.25;3.45;;;3.90;99.90;;;;;;5029482;28;20546;-61
2022/12/15 12:25:44;;;;;;;8.48;2.88;;;3.90;99.90;;;;;;5048638;28;20449;-60
2022/12/15 12:28:16;;;;;;;7.50;2.42;;;3.90;99.90;;;;;;5048830;28;20668;-60
2022/12/15 12:30:46;;;;;;;9.68;3.15;;;3.90;99.90;;;;;;5049252;28;20436;-60
2022/12/15 12:33:43;;;;;;;9.48;2.60;;;4.00;99.90;;;;;;5049480;28;20381;-61
2022/12/15 12:36:14;;;;;;;8.35;2.72;;;4.00;99.90;;;;;;5049380;28;20496;-60
2022/12/15 12:38:49;;;;;;;11.70;4.82;;;4.10;99.90;;;;;;5051931;28;20045;-60
2022/12/15 12:41:20;;;;;;;6.93;2.92;;;4.10;99.90;;;;;;5043287;28;20048;-61
2022/12/15 12:43:57;;;;;;;9.68;3.33;;;4.00;99.90;;;;;;5050158;28;20041;-61
2022/12/15 12:46:31;;;;;;;14.40;5.63;;;4.00;99.90;;;;;;5049568;28;20037;-61
2022/12/15 12:49:16;;;;;;;7.00;3.28;;;4.00;99.90;;;;;;5051521;28;20140;-62
2022/12/15 12:51:50;;;;;;;8.60;3.70;;;3.90;99.90;;;;;;5052307;28;20048;-61
2022/12/15 12:54:34;;;;;;;9.52;2.92;;;3.90;99.90;;;;;;5052168;28;20067;-62
2022/12/15 12:57:20;;;;;;;13.75;4.43;;;3.80;99.90;;;;;;5068420;28;20229;-61
2022/12/15 13:00:07;;;;;;;10.27;3.70;;;3.80;99.90;;;;;;5037611;28;20053;-62
2022/12/15 13:02:34;;;;;;;9.07;3.10;;;3.80;99.90;;;;;;5068245;28;20071;-61
2022/12/15 13:05:20;;;;;;;8.63;3.53;;;3.80;99.90;;;;;;5052413;28;20045;-61
2022/12/15 13:08:13;;;;;;;9.85;3.80;;;3.80;99.90;;;;;;5052086;28;20110;-62
2022/12/15 13:10:42;;;;;;;10.32;4.20;;;3.80;99.90;;;;;;5028645;28;20074;-62
2022/12/15 13:13:07;;;;;;;9.25;3.83;;;3.80;99.90;;;;;;5051201;28;20041;-62
2022/12/15 13:15:38;;;;;;;8.55;3.97;;;3.80;99.90;;;;;;5050746;28;20040;-62
2022/12/15 13:18:17;;;;;;;8.65;3.63;;;3.80;99.90;;;;;;5050401;28;20170;-62
2022/12/15 13:20:45;;;;;;;11.07;4.13;;;3.80;99.90;;;;;;5050921;28;20049;-62
2022/12/15 13:23:20;;;;;;;12.07;3.70;;;3.80;99.90;;;;;;5052090;28;20049;-62
2022/12/15 13:25:52;;;;;;;8.30;3.10;;;3.70;99.90;;;;;;5071800;28;20481;-61
2022/12/15 13:28:38;;;;;;;9.63;3.58;;;3.70;99.90;;;;;;5062749;28;20041;-62
2022/12/15 13:31:22;;;;;;;7.15;3.25;;;3.60;99.90;;;;;;5050373;28;20032;-62
2022/12/15 13:33:51;;;;;;;9.02;3.10;;;3.50;99.90;;;;;;5071706;28;20048;-62
2022/12/15 13:36:35;;;;;;;9.43;4.00;;;3.50;99.90;;;;;;5053003;28;20044;-63
2022/12/15 13:39:11;;;;;;;9.98;4.40;;;3.40;99.90;;;;;;5054156;28;20044;-62
2022/12/15 13:42:00;;;;;;;9.13;4.07;;;3.40;99.90;;;;;;5057204;28;20493;-62
2022/12/15 13:44:50;;;;;;;7.63;3.60;;;3.40;99.90;;;;;;5004357;28;20044;-61
2022/12/15 13:47:29;;;;;;;9.10;3.92;;;3.40;99.90;;;;;;5031252;28;20364;-61
2022/12/15 13:49:59;;;;;;;8.57;3.10;;;3.50;99.90;;;;;;5054579;28;20041;-61
2022/12/15 13:52:28;;;;;;;9.80;3.85;;;3.50;99.90;;;;;;5068365;28;20056;-63
2022/12/15 13:54:58;;;;;;;13.20;4.53;;;3.60;99.90;;;;;;5055377;28;20106;-63
2022/12/15 13:57:25;;;;;;;9.98;4.50;;;3.70;99.90;;;;;;5049313;28;20064;-63
2022/12/15 14:00:17;;;;;;;9.40;5.38;;;3.70;99.90;;;;;;5065653;28;20055;-63
2022/12/15 14:02:43;;;;;;;11.70;5.07;;;3.60;99.90;;;;;;5058014;28;20044;-63
2022/12/15 14:05:20;;;;;;;10.85;4.50;;;3.60;99.90;;;;;;5049951;28;20123;-64
2022/12/15 14:07:52;;;;;;;12.68;7.15;;;3.50;99.90;;;;;;5067976;28;20041;-63
2022/12/15 14:10:40;;;;;;;9.13;4.28;;;3.50;99.90;;;;;;5048715;28;20568;-63
2022/12/15 14:13:41;;;;;;;10.82;4.60;;;3.40;99.90;;;;;;5067821;28;20040;-63
2022/12/15 14:16:17;;;;;;;8.73;5.07;;;3.30;99.90;;;;;;5013191;28;20067;-63
2022/12/15 14:18:44;;;;;;;9.23;3.90;;;3.30;99.90;;;;;;5067665;28;20504;-64
2022/12/15 14:21:21;;;;;;;9.85;3.78;;;3.20;99.90;;;;;;5065904;28;20115;-62
2022/12/15 14:23:48;;;;;;;8.85;2.50;;;3.10;99.90;;;;;;5034166;28;20483;-63
2022/12/15 14:26:15;;;;;;;6.50;2.20;;;3.00;99.90;;;;;;5049970;28;20037;-63
2022/12/15 14:28:44;;;;;;;9.48;2.75;;;2.90;99.90;;;;;;5051220;28;20059;-63
2022/12/15 14:31:20;;;;;;;6.60;2.00;;;2.80;99.90;;;;;;5068661;28;20040;-62
2022/12/15 14:33:59;;;;;;;7.30;1.40;;;2.80;99.90;;;;;;5052804;28;20127;-62
2022/12/15 14:36:25;;;;;;;5.00;1.75;;;2.70;99.90;;;;;;5052048;28;20086;-62
2022/12/15 14:39:00;;;;;;;7.68;2.15;;;2.70;99.90;;;;;;5067793;28;20040;-62
2022/12/15 14:41:34;;;;;;;6.43;1.55;;;2.60;99.90;;;;;;5050405;28;20502;-61
2022/12/15 14:44:42;;;;;;;7.18;1.73;;;2.60;99.90;;;;;;5059938;28;20298;-60
2022/12/15 14:47:20;;;;;;;8.90;2.95;;;2.50;99.90;;;;;;5053193;28;20058;-60
2022/12/15 14:49:47;;;;;;;7.22;2.10;;;2.50;99.90;;;;;;5052709;28;20048;-60
2022/12/15 14:52:54;;;;;;;6.43;2.72;;;2.50;99.90;;;;;;5052058;28;20058;-60
2022/12/15 14:55:20;;;;;;;9.20;3.10;;;2.50;99.90;;;;;;4968716;28;20092;-61
2022/12/15 14:57:46;;;;;;;9.60;4.72;;;2.40;99.90;;;;;;4991479;28;20042;-61
2022/12/15 15:00:23;;;;;;;9.95;3.25;;;2.40;99.90;;;;;;5045370;28;20056;-61
2022/12/15 15:02:48;;;;;;;5.38;2.10;;;2.40;99.90;;;;;;5057425;28;20097;-61
2022/12/15 15:05:26;;;;;;;9.25;3.38;;;2.30;99.90;;;;;;5092687;28;20036;-61
2022/12/15 15:07:55;;;;;;;5.10;2.10;;;2.30;99.90;;;;;;5070014;28;20109;-61
2022/12/15 15:10:26;;;;;;;6.47;1.98;;;2.30;99.90;;;;;;5069453;28;20040;-60
2022/12/15 15:12:53;;;;;;;7.35;2.85;;;2.20;99.90;;;;;;5053293;28;20420;-61
2022/12/15 15:15:20;;;;;;;7.22;2.50;;;2.20;99.90;;;;;;5052090;28;20548;-61
2022/12/15 15:17:53;;;;;;;6.97;2.20;;;2.10;99.90;;;;;;5071830;28;20547;-61
2022/12/15 15:20:27;;;;;;;6.63;2.17;;;2.10;99.90;;;;;;5051988;28;20094;-60
2022/12/15 15:23:22;;;;;;;6.00;2.38;;;2.10;99.90;;;;;;5056109;28;20138;-61
2022/12/15 15:26:07;;;;;;;7.23;1.90;;;2.00;99.90;;;;;;5070435;28;20516;-61
2022/12/15 15:28:39;;;;;;;7.55;2.22;;;2.00;99.90;;;;;;5069923;28;20279;-61
2022/12/15 15:31:40;;;;;;;7.15;2.10;;;1.90;99.90;;;;;;5053229;28;20052;-61
2022/12/15 15:34:06;;;;;;;4.65;1.90;;;1.90;99.90;;;;;;4934336;29;20209;-61
2022/12/15 15:36:37;;;;;;;7.45;2.45;;;1.90;99.90;;;;;;5029289;28;20049;-61
2022/12/15 15:39:14;;;;;;;6.97;2.58;;;1.90;99.90;;;;;;5070805;28;20086;-61
2022/12/15 15:41:40;;;;;;;9.95;3.47;;;1.90;99.90;;;;;;5055107;28;20450;-61
2022/12/15 15:44:12;;;;;;;8.95;3.15;;;1.90;99.90;;;;;;5069476;28;20071;-60
2022/12/15 15:46:48;;;;;;;9.73;3.28;;;1.90;99.90;;;;;;5071045;28;20075;-61